< < Back
Terminal Aerodrome Forecast


Current Version              Previous Versions:   1  2  3  4  5  6  7  8  9  

Terminal Aerodrome Forecast

138
FTUS42 KTAE 061732
TAFTLH
TAF
KTLH 061732Z 0618/0718 34005KT P6SM BKN040
     FM070600 35004KT P6SM SCT050 OVC100
     FM071500 33012G20KT P6SM SKC=

Latest METAR

370
SAUS80 KWBC 061800 RRB
MTRTLH
METAR KTLH 061753Z 32007KT 10SM OVC042 10/M01 A3027 RMK AO2 SLP252
T01001011 10106 20044 58014


USA.gov is the U.S. government's official web portal to all federal, state and local government web resources and services.